sensor_id;sensor_type;location;lat;lon;timestamp;temperature;humidity
65536;DHT22;52145;49.342;9.116;2022-08-19T00:01:25;21.20;99.90
65536;DHT22;52145;49.342;9.116;2022-08-19T00:03:51;21.20;99.90
65536;DHT22;52145;49.342;9.116;2022-08-19T00:06:17;21.20;99.90
65536;DHT22;52145;49.342;9.116;2022-08-19T00:08:42;21.30;99.90
65536;DHT22;52145;49.342;9.116;2022-08-19T00:11:09;21.30;99.90
65536;DHT22;52145;49.342;9.116;2022-08-19T00:13:34;21.40;99.90
65536;DHT22;52145;49.342;9.116;2022-08-19T00:16:00;21.50;99.90
65536;DHT22;52145;49.342;9.116;2022-08-19T00:18:26;21.40;99.90
65536;DHT22;52145;49.342;9.116;2022-08-19T00:20:52;21.50;99.90
65536;DHT22;52145;49.342;9.116;2022-08-19T00:23:18;21.50;99.90
65536;DHT22;52145;49.342;9.116;2022-08-19T00:25:44;21.50;99.90
65536;DHT22;52145;49.342;9.116;2022-08-19T00:28:09;21.50;99.90
65536;DHT22;52145;49.342;9.116;2022-08-19T00:30:35;21.50;99.90
65536;DHT22;52145;49.342;9.116;2022-08-19T00:33:02;21.50;99.90
65536;DHT22;52145;49.342;9.116;2022-08-19T00:35:27;21.60;99.90
65536;DHT22;52145;49.342;9.116;2022-08-19T00:37:53;21.50;99.90
65536;DHT22;52145;49.342;9.116;2022-08-19T00:40:19;21.40;99.90
65536;DHT22;52145;49.342;9.116;2022-08-19T00:42:45;21.50;99.90
65536;DHT22;52145;49.342;9.116;2022-08-19T00:45:23;21.70;99.90
65536;DHT22;52145;49.342;9.116;2022-08-19T00:47:49;21.60;99.90
65536;DHT22;52145;49.342;9.116;2022-08-19T00:50:17;21.60;99.90
65536;DHT22;52145;49.342;9.116;2022-08-19T00:52:46;21.50;99.90
65536;DHT22;52145;49.342;9.116;2022-08-19T00:55:21;21.60;99.90
65536;DHT22;52145;49.342;9.116;2022-08-19T00:57:51;21.50;99.90
65536;DHT22;52145;49.342;9.116;2022-08-19T01:00:20;21.30;99.90
65536;DHT22;52145;49.342;9.116;2022-08-19T01:02:47;21.20;99.90
65536;DHT22;52145;49.342;9.116;2022-08-19T01:05:22;21.10;99.90
65536;DHT22;52145;49.342;9.116;2022-08-19T01:07:50;21.10;99.90
65536;DHT22;52145;49.342;9.116;2022-08-19T01:10:18;21.10;99.90
65536;DHT22;52145;49.342;9.116;2022-08-19T01:12:45;21.10;99.90
65536;DHT22;52145;49.342;9.116;2022-08-19T01:15:14;21.10;99.90
65536;DHT22;52145;49.342;9.116;2022-08-19T01:17:41;21.20;99.90
65536;DHT22;52145;49.342;9.116;2022-08-19T01:20:13;21.20;99.90
65536;DHT22;52145;49.342;9.116;2022-08-19T01:22:44;21.30;99.90
65536;DHT22;52145;49.342;9.116;2022-08-19T01:25:13;21.20;99.90
65536;DHT22;52145;49.342;9.116;2022-08-19T01:27:40;21.20;99.90
65536;DHT22;52145;49.342;9.116;2022-08-19T01:30:07;21.20;99.90
65536;DHT22;52145;49.342;9.116;2022-08-19T01:32:33;21.20;99.90
65536;DHT22;52145;49.342;9.116;2022-08-19T01:34:58;21.20;99.90
65536;DHT22;52145;49.342;9.116;2022-08-19T01:37:26;21.30;99.90
65536;DHT22;52145;49.342;9.116;2022-08-19T01:39:52;21.20;99.90
65536;DHT22;52145;49.342;9.116;2022-08-19T01:42:18;21.20;99.90
65536;DHT22;52145;49.342;9.116;2022-08-19T01:44:44;21.00;99.90
65536;DHT22;52145;49.342;9.116;2022-08-19T01:47:10;21.10;99.90
65536;DHT22;52145;49.342;9.116;2022-08-19T01:49:36;21.20;99.90
65536;DHT22;52145;49.342;9.116;2022-08-19T01:52:02;21.20;99.90
65536;DHT22;52145;49.342;9.116;2022-08-19T01:54:28;21.20;99.90
65536;DHT22;52145;49.342;9.116;2022-08-19T01:57:00;21.10;99.90
65536;DHT22;52145;49.342;9.116;2022-08-19T01:59:26;21.10;99.90
65536;DHT22;52145;49.342;9.116;2022-08-19T02:01:52;21.00;99.90
65536;DHT22;52145;49.342;9.116;2022-08-19T02:04:18;21.10;99.90
65536;DHT22;52145;49.342;9.116;2022-08-19T02:06:43;21.00;99.90
65536;DHT22;52145;49.342;9.116;2022-08-19T02:09:09;21.00;99.90
65536;DHT22;52145;49.342;9.116;2022-08-19T02:11:36;21.10;99.90
65536;DHT22;52145;49.342;9.116;2022-08-19T02:14:04;21.20;99.90
65536;DHT22;52145;49.342;9.116;2022-08-19T02:16:30;21.00;99.90
65536;DHT22;52145;49.342;9.116;2022-08-19T02:18:56;21.00;99.90
65536;DHT22;52145;49.342;9.116;2022-08-19T02:21:25;21.00;99.90
65536;DHT22;52145;49.342;9.116;2022-08-19T02:23:51;21.00;99.90
65536;DHT22;52145;49.342;9.116;2022-08-19T02:26:17;21.10;99.90
65536;DHT22;52145;49.342;9.116;2022-08-19T02:28:43;21.10;99.90
65536;DHT22;52145;49.342;9.116;2022-08-19T02:31:15;21.10;99.90
65536;DHT22;52145;49.342;9.116;2022-08-19T02:33:41;21.10;99.90
65536;DHT22;52145;49.342;9.116;2022-08-19T02:36:07;21.10;99.90
65536;DHT22;52145;49.342;9.116;2022-08-19T02:38:33;21.10;99.90
65536;DHT22;52145;49.342;9.116;2022-08-19T02:41:02;21.00;99.90
65536;DHT22;52145;49.342;9.116;2022-08-19T02:43:30;21.00;99.90
65536;DHT22;52145;49.342;9.116;2022-08-19T02:45:56;21.00;99.90
65536;DHT22;52145;49.342;9.116;2022-08-19T02:48:23;20.90;99.90
65536;DHT22;52145;49.342;9.116;2022-08-19T02:50:51;21.00;99.90
65536;DHT22;52145;49.342;9.116;2022-08-19T02:53:24;20.90;99.90
65536;DHT22;52145;49.342;9.116;2022-08-19T02:55:51;20.80;99.90
65536;DHT22;52145;49.342;9.116;2022-08-19T02:58:18;20.80;99.90
65536;DHT22;52145;49.342;9.116;2022-08-19T03:00:45;20.80;99.90
65536;DHT22;52145;49.342;9.116;2022-08-19T03:03:12;20.90;99.90
65536;DHT22;52145;49.342;9.116;2022-08-19T03:05:38;20.90;99.90
65536;DHT22;52145;49.342;9.116;2022-08-19T03:08:04;20.80;99.90
65536;DHT22;52145;49.342;9.116;2022-08-19T03:10:31;20.80;99.90
65536;DHT22;52145;49.342;9.116;2022-08-19T03:12:57;20.80;99.90
65536;DHT22;52145;49.342;9.116;2022-08-19T03:15:22;20.70;99.90
65536;DHT22;52145;49.342;9.116;2022-08-19T03:17:48;20.60;99.90
65536;DHT22;52145;49.342;9.116;2022-08-19T03:20:13;20.70;99.90
65536;DHT22;52145;49.342;9.116;2022-08-19T03:22:39;20.70;99.90
65536;DHT22;52145;49.342;9.116;2022-08-19T03:25:05;20.60;99.90
65536;DHT22;52145;49.342;9.116;2022-08-19T03:27:31;20.60;99.90
65536;DHT22;52145;49.342;9.116;2022-08-19T03:29:56;20.60;99.90
65536;DHT22;52145;49.342;9.116;2022-08-19T03:32:22;20.80;99.90
65536;DHT22;52145;49.342;9.116;2022-08-19T03:34:48;20.90;99.90
65536;DHT22;52145;49.342;9.116;2022-08-19T03:37:14;20.80;99.90
65536;DHT22;52145;49.342;9.116;2022-08-19T03:39:40;20.20;99.90
65536;DHT22;52145;49.342;9.116;2022-08-19T03:42:07;20.80;99.90
65536;DHT22;52145;49.342;9.116;2022-08-19T03:44:33;20.40;99.90
65536;DHT22;52145;49.342;9.116;2022-08-19T03:46:59;20.40;99.90
65536;DHT22;52145;49.342;9.116;2022-08-19T03:49:27;20.40;99.90
65536;DHT22;52145;49.342;9.116;2022-08-19T03:51:55;20.40;99.90
65536;DHT22;52145;49.342;9.116;2022-08-19T03:54:23;20.40;99.90
65536;DHT22;52145;49.342;9.116;2022-08-19T03:56:51;20.50;99.90
65536;DHT22;52145;49.342;9.116;2022-08-19T03:59:30;20.40;99.90
65536;DHT22;52145;49.342;9.116;2022-08-19T04:01:58;20.40;99.90
65536;DHT22;52145;49.342;9.116;2022-08-19T04:04:24;20.40;99.90
65536;DHT22;52145;49.342;9.116;2022-08-19T04:06:51;20.30;99.90
65536;DHT22;52145;49.342;9.116;2022-08-19T04:09:18;20.40;99.90
65536;DHT22;52145;49.342;9.116;2022-08-19T04:11:47;20.40;99.90
65536;DHT22;52145;49.342;9.116;2022-08-19T04:14:17;20.40;99.90
65536;DHT22;52145;49.342;9.116;2022-08-19T04:16:44;20.40;99.90
65536;DHT22;52145;49.342;9.116;2022-08-19T04:19:10;20.40;99.90
65536;DHT22;52145;49.342;9.116;2022-08-19T04:21:36;20.40;99.90
65536;DHT22;52145;49.342;9.116;2022-08-19T04:24:02;20.30;99.90
65536;DHT22;52145;49.342;9.116;2022-08-19T04:26:30;20.20;99.90
65536;DHT22;52145;49.342;9.116;2022-08-19T04:29:02;20.30;99.90
65536;DHT22;52145;49.342;9.116;2022-08-19T04:31:30;20.40;99.90
65536;DHT22;52145;49.342;9.116;2022-08-19T04:33:58;20.40;99.90
65536;DHT22;52145;49.342;9.116;2022-08-19T04:36:31;20.40;99.90
65536;DHT22;52145;49.342;9.116;2022-08-19T04:39:03;20.50;99.90
65536;DHT22;52145;49.342;9.116;2022-08-19T04:41:29;20.50;99.90
65536;DHT22;52145;49.342;9.116;2022-08-19T04:44:13;20.60;99.90
65536;DHT22;52145;49.342;9.116;2022-08-19T04:46:40;20.60;99.90
65536;DHT22;52145;49.342;9.116;2022-08-19T04:49:06;20.60;99.90
65536;DHT22;52145;49.342;9.116;2022-08-19T04:51:34;20.50;99.90
65536;DHT22;52145;49.342;9.116;2022-08-19T04:54:01;20.70;99.90
65536;DHT22;52145;49.342;9.116;2022-08-19T04:56:27;20.70;99.90
65536;DHT22;52145;49.342;9.116;2022-08-19T04:58:54;20.60;99.90
65536;DHT22;52145;49.342;9.116;2022-08-19T05:01:28;20.70;99.90
65536;DHT22;52145;49.342;9.116;2022-08-19T05:03:54;20.70;99.90
65536;DHT22;52145;49.342;9.116;2022-08-19T05:06:20;20.70;99.90
65536;DHT22;52145;49.342;9.116;2022-08-19T05:08:47;20.70;99.90
65536;DHT22;52145;49.342;9.116;2022-08-19T05:11:19;20.70;99.90
65536;DHT22;52145;49.342;9.116;2022-08-19T05:13:46;20.80;99.90
65536;DHT22;52145;49.342;9.116;2022-08-19T05:16:15;20.80;99.90
65536;DHT22;52145;49.342;9.116;2022-08-19T05:18:41;20.80;99.90
65536;DHT22;52145;49.342;9.116;2022-08-19T05:21:26;20.90;99.90
65536;DHT22;52145;49.342;9.116;2022-08-19T05:24:11;20.90;99.90
65536;DHT22;52145;49.342;9.116;2022-08-19T05:26:40;21.00;99.90
65536;DHT22;52145;49.342;9.116;2022-08-19T05:29:06;21.10;99.90
65536;DHT22;52145;49.342;9.116;2022-08-19T05:31:36;21.00;99.90
65536;DHT22;52145;49.342;9.116;2022-08-19T05:34:03;21.00;99.90
65536;DHT22;52145;49.342;9.116;2022-08-19T05:36:34;21.10;99.90
65536;DHT22;52145;49.342;9.116;2022-08-19T05:39:02;21.10;99.90
65536;DHT22;52145;49.342;9.116;2022-08-19T05:41:27;21.10;99.90
65536;DHT22;52145;49.342;9.116;2022-08-19T05:44:02;21.20;99.90
65536;DHT22;52145;49.342;9.116;2022-08-19T05:46:28;21.20;99.90
65536;DHT22;52145;49.342;9.116;2022-08-19T05:48:54;21.30;99.90
65536;DHT22;52145;49.342;9.116;2022-08-19T05:51:22;21.40;99.90
65536;DHT22;52145;49.342;9.116;2022-08-19T05:53:49;21.40;99.90
65536;DHT22;52145;49.342;9.116;2022-08-19T05:56:15;21.50;99.90
65536;DHT22;52145;49.342;9.116;2022-08-19T05:58:42;21.50;99.90
65536;DHT22;52145;49.342;9.116;2022-08-19T06:01:15;21.60;99.90
65536;DHT22;52145;49.342;9.116;2022-08-19T06:03:42;21.40;99.90
65536;DHT22;52145;49.342;9.116;2022-08-19T06:06:10;21.30;99.90
65536;DHT22;52145;49.342;9.116;2022-08-19T06:08:36;21.40;99.90
65536;DHT22;52145;49.342;9.116;2022-08-19T06:11:18;21.60;99.90
65536;DHT22;52145;49.342;9.116;2022-08-19T06:13:45;21.60;99.90
65536;DHT22;52145;49.342;9.116;2022-08-19T06:16:13;21.70;99.90
65536;DHT22;52145;49.342;9.116;2022-08-19T06:18:44;21.80;99.90
65536;DHT22;52145;49.342;9.116;2022-08-19T06:21:10;21.70;99.90
65536;DHT22;52145;49.342;9.116;2022-08-19T06:23:35;21.90;99.90
65536;DHT22;52145;49.342;9.116;2022-08-19T06:26:01;21.80;99.90
65536;DHT22;52145;49.342;9.116;2022-08-19T06:28:26;21.90;99.90
65536;DHT22;52145;49.342;9.116;2022-08-19T06:30:52;21.90;99.90
65536;DHT22;52145;49.342;9.116;2022-08-19T06:33:18;21.90;99.90
65536;DHT22;52145;49.342;9.116;2022-08-19T06:35:43;21.80;99.90
65536;DHT22;52145;49.342;9.116;2022-08-19T06:38:09;21.80;99.90
65536;DHT22;52145;49.342;9.116;2022-08-19T06:40:35;22.00;99.90
65536;DHT22;52145;49.342;9.116;2022-08-19T06:43:01;22.00;99.90
65536;DHT22;52145;49.342;9.116;2022-08-19T06:45:27;22.00;99.90
65536;DHT22;52145;49.342;9.116;2022-08-19T06:47:53;22.10;99.90
65536;DHT22;52145;49.342;9.116;2022-08-19T06:50:23;22.10;99.90
65536;DHT22;52145;49.342;9.116;2022-08-19T06:52:48;22.10;99.90
65536;DHT22;52145;49.342;9.116;2022-08-19T06:55:14;22.10;99.90
65536;DHT22;52145;49.342;9.116;2022-08-19T06:57:41;22.10;99.90
65536;DHT22;52145;49.342;9.116;2022-08-19T07:00:08;21.90;99.90
65536;DHT22;52145;49.342;9.116;2022-08-19T07:02:39;22.00;99.90
65536;DHT22;52145;49.342;9.116;2022-08-19T07:05:05;22.10;99.90
65536;DHT22;52145;49.342;9.116;2022-08-19T07:07:31;22.00;99.90
65536;DHT22;52145;49.342;9.116;2022-08-19T07:09:57;22.00;99.90
65536;DHT22;52145;49.342;9.116;2022-08-19T07:12:22;22.20;99.90
65536;DHT22;52145;49.342;9.116;2022-08-19T07:14:48;22.10;99.90
65536;DHT22;52145;49.342;9.116;2022-08-19T07:17:14;22.00;99.90
65536;DHT22;52145;49.342;9.116;2022-08-19T07:19:41;22.20;99.90
65536;DHT22;52145;49.342;9.116;2022-08-19T07:22:09;22.20;99.90
65536;DHT22;52145;49.342;9.116;2022-08-19T07:24:36;22.40;99.90
65536;DHT22;52145;49.342;9.116;2022-08-19T07:27:03;22.50;99.90
65536;DHT22;52145;49.342;9.116;2022-08-19T07:29:31;22.60;99.90
65536;DHT22;52145;49.342;9.116;2022-08-19T07:31:58;22.70;99.90
65536;DHT22;52145;49.342;9.116;2022-08-19T07:34:25;22.90;99.90
65536;DHT22;52145;49.342;9.116;2022-08-19T07:36:52;22.80;99.90
65536;DHT22;52145;49.342;9.116;2022-08-19T07:39:21;23.10;99.90
65536;DHT22;52145;49.342;9.116;2022-08-19T07:41:48;23.50;99.90
65536;DHT22;52145;49.342;9.116;2022-08-19T07:44:15;23.60;99.90
65536;DHT22;52145;49.342;9.116;2022-08-19T07:46:43;23.60;99.90
65536;DHT22;52145;49.342;9.116;2022-08-19T07:49:11;23.80;99.90
65536;DHT22;52145;49.342;9.116;2022-08-19T07:51:43;23.80;99.90
65536;DHT22;52145;49.342;9.116;2022-08-19T07:54:08;24.00;99.90
65536;DHT22;52145;49.342;9.116;2022-08-19T07:56:34;23.60;99.90
65536;DHT22;52145;49.342;9.116;2022-08-19T07:58:59;23.90;99.90
65536;DHT22;52145;49.342;9.116;2022-08-19T08:01:26;24.10;99.90
65536;DHT22;52145;49.342;9.116;2022-08-19T08:03:54;23.80;99.90
65536;DHT22;52145;49.342;9.116;2022-08-19T08:06:39;23.90;99.90
65536;DHT22;52145;49.342;9.116;2022-08-19T08:09:26;23.90;99.90
65536;DHT22;52145;49.342;9.116;2022-08-19T08:11:55;23.80;99.90
65536;DHT22;52145;49.342;9.116;2022-08-19T08:14:32;23.70;99.90
65536;DHT22;52145;49.342;9.116;2022-08-19T08:16:59;23.90;99.90
65536;DHT22;52145;49.342;9.116;2022-08-19T08:19:26;23.90;99.90
65536;DHT22;52145;49.342;9.116;2022-08-19T08:21:57;23.80;99.90
65536;DHT22;52145;49.342;9.116;2022-08-19T08:24:24;23.90;99.90
65536;DHT22;52145;49.342;9.116;2022-08-19T08:26:50;24.20;99.90
65536;DHT22;52145;49.342;9.116;2022-08-19T08:29:15;24.90;99.90
65536;DHT22;52145;49.342;9.116;2022-08-19T08:31:43;25.50;99.90
65536;DHT22;52145;49.342;9.116;2022-08-19T08:34:10;25.60;99.90
65536;DHT22;52145;49.342;9.116;2022-08-19T08:36:41;25.50;99.90
65536;DHT22;52145;49.342;9.116;2022-08-19T08:39:19;25.60;99.90
65536;DHT22;52145;49.342;9.116;2022-08-19T08:42:05;25.40;99.90
65536;DHT22;52145;49.342;9.116;2022-08-19T08:47:18;25.20;99.90
65536;DHT22;52145;49.342;9.116;2022-08-19T08:49:50;25.10;99.90
65536;DHT22;52145;49.342;9.116;2022-08-19T08:52:22;25.10;99.90
65536;DHT22;52145;49.342;9.116;2022-08-19T08:54:51;25.30;99.90
65536;DHT22;52145;49.342;9.116;2022-08-19T08:57:26;25.30;99.90
65536;DHT22;52145;49.342;9.116;2022-08-19T08:59:54;25.20;99.90
65536;DHT22;52145;49.342;9.116;2022-08-19T09:02:22;25.30;99.90
65536;DHT22;52145;49.342;9.116;2022-08-19T09:04:48;25.00;99.90
65536;DHT22;52145;49.342;9.116;2022-08-19T09:10:29;25.00;99.90
65536;DHT22;52145;49.342;9.116;2022-08-19T09:13:08;25.20;99.90
65536;DHT22;52145;49.342;9.116;2022-08-19T09:15:44;25.30;99.90
65536;DHT22;52145;49.342;9.116;2022-08-19T09:18:10;25.50;99.90
65536;DHT22;52145;49.342;9.116;2022-08-19T09:20:36;25.30;99.90
65536;DHT22;52145;49.342;9.116;2022-08-19T09:23:02;25.70;99.90
65536;DHT22;52145;49.342;9.116;2022-08-19T09:25:27;26.20;99.90
65536;DHT22;52145;49.342;9.116;2022-08-19T09:27:54;26.40;99.90
65536;DHT22;52145;49.342;9.116;2022-08-19T09:30:26;26.40;99.90
65536;DHT22;52145;49.342;9.116;2022-08-19T09:32:53;26.20;99.90
65536;DHT22;52145;49.342;9.116;2022-08-19T09:35:25;26.10;99.90
65536;DHT22;52145;49.342;9.116;2022-08-19T09:37:51;26.00;99.90
65536;DHT22;52145;49.342;9.116;2022-08-19T09:40:17;25.80;99.90
65536;DHT22;52145;49.342;9.116;2022-08-19T09:42:46;25.40;99.90
65536;DHT22;52145;49.342;9.116;2022-08-19T09:45:17;25.40;99.90
65536;DHT22;52145;49.342;9.116;2022-08-19T09:47:43;25.70;99.90
65536;DHT22;52145;49.342;9.116;2022-08-19T09:50:11;25.90;99.90
65536;DHT22;52145;49.342;9.116;2022-08-19T09:52:37;26.00;99.90
65536;DHT22;52145;49.342;9.116;2022-08-19T09:55:05;26.20;99.90
65536;DHT22;52145;49.342;9.116;2022-08-19T09:57:31;26.40;99.90
65536;DHT22;52145;49.342;9.116;2022-08-19T09:59:56;26.50;99.90
65536;DHT22;52145;49.342;9.116;2022-08-19T10:02:22;26.90;99.90
65536;DHT22;52145;49.342;9.116;2022-08-19T10:04:48;27.00;99.90
65536;DHT22;52145;49.342;9.116;2022-08-19T10:07:32;26.90;99.90
65536;DHT22;52145;49.342;9.116;2022-08-19T10:09:58;27.20;99.90
65536;DHT22;52145;49.342;9.116;2022-08-19T10:12:24;26.80;99.90
65536;DHT22;52145;49.342;9.116;2022-08-19T10:14:49;26.80;99.90
65536;DHT22;52145;49.342;9.116;2022-08-19T10:17:16;26.90;99.90
65536;DHT22;52145;49.342;9.116;2022-08-19T10:19:43;27.20;99.90
65536;DHT22;52145;49.342;9.116;2022-08-19T10:22:08;27.70;99.90
65536;DHT22;52145;49.342;9.116;2022-08-19T10:24:36;28.30;99.90
65536;DHT22;52145;49.342;9.116;2022-08-19T10:27:02;28.90;99.90
65536;DHT22;52145;49.342;9.116;2022-08-19T10:29:29;28.90;99.60
65536;DHT22;52145;49.342;9.116;2022-08-19T10:31:55;28.80;99.20
65536;DHT22;52145;49.342;9.116;2022-08-19T10:34:23;29.20;99.10
65536;DHT22;52145;49.342;9.116;2022-08-19T10:36:49;28.70;99.50
65536;DHT22;52145;49.342;9.116;2022-08-19T10:39:15;28.50;98.90
65536;DHT22;52145;49.342;9.116;2022-08-19T10:41:40;28.00;99.30
65536;DHT22;52145;49.342;9.116;2022-08-19T10:44:10;27.00;99.10
65536;DHT22;52145;49.342;9.116;2022-08-19T10:46:39;27.70;99.30
65536;DHT22;52145;49.342;9.116;2022-08-19T10:49:07;28.80;98.80
65536;DHT22;52145;49.342;9.116;2022-08-19T10:51:34;28.90;98.40
65536;DHT22;52145;49.342;9.116;2022-08-19T10:54:18;27.90;98.10
65536;DHT22;52145;49.342;9.116;2022-08-19T10:56:44;28.00;98.70
65536;DHT22;52145;49.342;9.116;2022-08-19T10:59:26;27.90;98.40
65536;DHT22;52145;49.342;9.116;2022-08-19T11:01:53;28.40;98.60
65536;DHT22;52145;49.342;9.116;2022-08-19T11:04:20;28.40;97.80
65536;DHT22;52145;49.342;9.116;2022-08-19T11:06:48;28.20;98.10
65536;DHT22;52145;49.342;9.116;2022-08-19T11:09:19;27.80;97.80
65536;DHT22;52145;49.342;9.116;2022-08-19T11:11:46;27.40;97.90
65536;DHT22;52145;49.342;9.116;2022-08-19T11:14:15;27.90;97.90
65536;DHT22;52145;49.342;9.116;2022-08-19T11:16:42;28.60;97.00
65536;DHT22;52145;49.342;9.116;2022-08-19T11:19:10;29.50;96.70
65536;DHT22;52145;49.342;9.116;2022-08-19T11:21:40;29.30;96.20
65536;DHT22;52145;49.342;9.116;2022-08-19T11:24:09;29.20;96.30
65536;DHT22;52145;49.342;9.116;2022-08-19T11:26:36;29.00;96.20
65536;DHT22;52145;49.342;9.116;2022-08-19T11:29:03;29.10;95.90
65536;DHT22;52145;49.342;9.116;2022-08-19T11:31:32;29.20;95.30
65536;DHT22;52145;49.342;9.116;2022-08-19T11:33:59;29.20;95.70
65536;DHT22;52145;49.342;9.116;2022-08-19T11:36:27;29.10;95.80
65536;DHT22;52145;49.342;9.116;2022-08-19T11:38:53;29.00;95.70
65536;DHT22;52145;49.342;9.116;2022-08-19T11:41:21;28.50;96.20
65536;DHT22;52145;49.342;9.116;2022-08-19T11:43:48;28.30;96.50
65536;DHT22;52145;49.342;9.116;2022-08-19T11:46:16;28.40;96.40
65536;DHT22;52145;49.342;9.116;2022-08-19T11:48:41;28.10;96.00
65536;DHT22;52145;49.342;9.116;2022-08-19T11:51:14;28.30;96.50
65536;DHT22;52145;49.342;9.116;2022-08-19T11:53:40;28.50;96.10
65536;DHT22;52145;49.342;9.116;2022-08-19T11:56:07;28.50;96.10
65536;DHT22;52145;49.342;9.116;2022-08-19T11:58:34;28.70;96.00
65536;DHT22;52145;49.342;9.116;2022-08-19T12:01:00;28.80;95.90
65536;DHT22;52145;49.342;9.116;2022-08-19T12:03:25;29.40;94.80
65536;DHT22;52145;49.342;9.116;2022-08-19T12:05:51;30.10;94.60
65536;DHT22;52145;49.342;9.116;2022-08-19T12:08:17;30.80;94.50
65536;DHT22;52145;49.342;9.116;2022-08-19T12:10:44;30.90;94.20
65536;DHT22;52145;49.342;9.116;2022-08-19T12:13:11;30.70;93.60
65536;DHT22;52145;49.342;9.116;2022-08-19T12:15:41;31.30;93.50
65536;DHT22;52145;49.342;9.116;2022-08-19T12:18:08;30.40;93.80
65536;DHT22;52145;49.342;9.116;2022-08-19T12:20:35;30.10;93.50
65536;DHT22;52145;49.342;9.116;2022-08-19T12:23:02;29.30;93.20
65536;DHT22;52145;49.342;9.116;2022-08-19T12:25:28;29.30;93.20
65536;DHT22;52145;49.342;9.116;2022-08-19T12:27:53;29.10;93.40
65536;DHT22;52145;49.342;9.116;2022-08-19T12:30:20;29.00;93.10
65536;DHT22;52145;49.342;9.116;2022-08-19T12:32:45;28.70;93.50
65536;DHT22;52145;49.342;9.116;2022-08-19T12:35:11;29.00;93.30
65536;DHT22;52145;49.342;9.116;2022-08-19T12:37:38;29.00;92.80
65536;DHT22;52145;49.342;9.116;2022-08-19T12:40:04;29.20;92.50
65536;DHT22;52145;49.342;9.116;2022-08-19T12:42:30;29.00;92.70
65536;DHT22;52145;49.342;9.116;2022-08-19T12:44:56;28.90;92.90
65536;DHT22;52145;49.342;9.116;2022-08-19T12:47:21;28.90;92.70
65536;DHT22;52145;49.342;9.116;2022-08-19T12:49:48;28.70;93.00
65536;DHT22;52145;49.342;9.116;2022-08-19T12:52:14;28.50;93.10
65536;DHT22;52145;49.342;9.116;2022-08-19T12:54:41;28.30;92.60
65536;DHT22;52145;49.342;9.116;2022-08-19T12:57:09;28.90;93.00
65536;DHT22;52145;49.342;9.116;2022-08-19T12:59:36;29.60;92.70
65536;DHT22;52145;49.342;9.116;2022-08-19T13:02:03;30.10;92.50
65536;DHT22;52145;49.342;9.116;2022-08-19T13:04:32;30.50;92.10
65536;DHT22;52145;49.342;9.116;2022-08-19T13:07:00;30.30;91.60
65536;DHT22;52145;49.342;9.116;2022-08-19T13:09:26;29.50;91.30
65536;DHT22;52145;49.342;9.116;2022-08-19T13:11:51;29.90;91.70
65536;DHT22;52145;49.342;9.116;2022-08-19T13:14:17;30.90;91.00
65536;DHT22;52145;49.342;9.116;2022-08-19T13:16:42;30.20;90.90
65536;DHT22;52145;49.342;9.116;2022-08-19T13:19:08;31.40;90.80
65536;DHT22;52145;49.342;9.116;2022-08-19T13:21:34;31.60;90.50
65536;DHT22;52145;49.342;9.116;2022-08-19T13:23:59;31.50;90.90
65536;DHT22;52145;49.342;9.116;2022-08-19T13:26:25;30.70;91.40
65536;DHT22;52145;49.342;9.116;2022-08-19T13:28:51;30.70;90.80
65536;DHT22;52145;49.342;9.116;2022-08-19T13:31:38;30.30;91.10
65536;DHT22;52145;49.342;9.116;2022-08-19T13:34:33;30.60;91.00
65536;DHT22;52145;49.342;9.116;2022-08-19T13:36:59;31.20;90.10
65536;DHT22;52145;49.342;9.116;2022-08-19T13:39:25;32.50;89.20
65536;DHT22;52145;49.342;9.116;2022-08-19T13:41:51;33.30;87.70
65536;DHT22;52145;49.342;9.116;2022-08-19T13:44:17;32.40;87.00
65536;DHT22;52145;49.342;9.116;2022-08-19T13:46:44;31.20;87.70
65536;DHT22;52145;49.342;9.116;2022-08-19T13:49:14;30.90;88.80
65536;DHT22;52145;49.342;9.116;2022-08-19T13:51:40;31.00;87.10
65536;DHT22;52145;49.342;9.116;2022-08-19T13:54:07;30.70;88.90
65536;DHT22;52145;49.342;9.116;2022-08-19T13:56:34;30.10;89.60
65536;DHT22;52145;49.342;9.116;2022-08-19T13:59:00;29.10;89.00
65536;DHT22;52145;49.342;9.116;2022-08-19T14:01:26;28.60;90.70
65536;DHT22;52145;49.342;9.116;2022-08-19T14:03:52;28.50;91.30
65536;DHT22;52145;49.342;9.116;2022-08-19T14:06:18;28.70;91.20
65536;DHT22;52145;49.342;9.116;2022-08-19T14:08:45;28.50;90.70
65536;DHT22;52145;49.342;9.116;2022-08-19T14:11:10;28.50;90.30
65536;DHT22;52145;49.342;9.116;2022-08-19T14:13:36;28.10;90.50
65536;DHT22;52145;49.342;9.116;2022-08-19T14:16:10;28.10;90.60
65536;DHT22;52145;49.342;9.116;2022-08-19T14:18:35;27.90;91.30
65536;DHT22;52145;49.342;9.116;2022-08-19T14:21:01;27.90;92.00
65536;DHT22;52145;49.342;9.116;2022-08-19T14:23:28;27.70;91.90
65536;DHT22;52145;49.342;9.116;2022-08-19T14:26:07;27.90;92.00
65536;DHT22;52145;49.342;9.116;2022-08-19T14:28:32;27.70;92.40
65536;DHT22;52145;49.342;9.116;2022-08-19T14:30:58;27.80;92.50
65536;DHT22;52145;49.342;9.116;2022-08-19T14:33:24;27.80;92.30
65536;DHT22;52145;49.342;9.116;2022-08-19T14:35:49;27.70;92.60
65536;DHT22;52145;49.342;9.116;2022-08-19T14:38:17;27.70;92.50
65536;DHT22;52145;49.342;9.116;2022-08-19T14:40:44;27.90;92.40
65536;DHT22;52145;49.342;9.116;2022-08-19T14:43:10;27.70;92.60
65536;DHT22;52145;49.342;9.116;2022-08-19T14:45:38;27.90;92.80
65536;DHT22;52145;49.342;9.116;2022-08-19T14:48:05;28.10;92.80
65536;DHT22;52145;49.342;9.116;2022-08-19T14:50:32;28.20;92.70
65536;DHT22;52145;49.342;9.116;2022-08-19T14:52:59;28.30;92.40
65536;DHT22;52145;49.342;9.116;2022-08-19T14:55:26;28.40;92.40
65536;DHT22;52145;49.342;9.116;2022-08-19T14:57:51;28.70;92.50
65536;DHT22;52145;49.342;9.116;2022-08-19T15:00:17;28.30;91.80
65536;DHT22;52145;49.342;9.116;2022-08-19T15:02:43;29.20;91.90
65536;DHT22;52145;49.342;9.116;2022-08-19T15:05:11;29.70;91.50
65536;DHT22;52145;49.342;9.116;2022-08-19T15:07:38;30.60;90.90
65536;DHT22;52145;49.342;9.116;2022-08-19T15:10:05;31.00;90.70
65536;DHT22;52145;49.342;9.116;2022-08-19T15:12:33;31.20;90.20
65536;DHT22;52145;49.342;9.116;2022-08-19T15:14:59;30.50;90.60
65536;DHT22;52145;49.342;9.116;2022-08-19T15:17:25;30.80;90.10
65536;DHT22;52145;49.342;9.116;2022-08-19T15:19:50;31.00;90.80
65536;DHT22;52145;49.342;9.116;2022-08-19T15:22:16;31.10;89.90
65536;DHT22;52145;49.342;9.116;2022-08-19T15:24:41;31.40;90.20
65536;DHT22;52145;49.342;9.116;2022-08-19T15:27:10;30.90;88.50
65536;DHT22;52145;49.342;9.116;2022-08-19T15:29:36;30.50;92.70
65536;DHT22;52145;49.342;9.116;2022-08-19T15:32:02;31.30;83.10
65536;DHT22;52145;49.342;9.116;2022-08-19T15:34:28;30.90;81.20
65536;DHT22;52145;49.342;9.116;2022-08-19T15:36:56;30.90;82.00
65536;DHT22;52145;49.342;9.116;2022-08-19T15:39:24;30.80;84.40